createdAt,value
2022-12-01T00:01:40.887Z,72.73
2022-12-01T00:04:14.402Z,72.96
2022-12-01T00:06:45.978Z,73.18
2022-12-01T00:09:31.102Z,73.09
2022-12-01T00:12:06.450Z,73.22
2022-12-01T00:14:38.814Z,73.28
2022-12-01T00:17:11.696Z,73.19
2022-12-01T00:19:42.177Z,73.14
2022-12-01T00:22:12.417Z,73.29
2022-12-01T00:24:45.124Z,73.16
2022-12-01T00:27:15.430Z,73.32
2022-12-01T00:29:45.618Z,73.55
2022-12-01T00:32:18.229Z,73.58
2022-12-01T00:34:48.301Z,73.79
2022-12-01T00:37:21.505Z,73.65
2022-12-01T00:39:56.501Z,73.77
2022-12-01T00:42:26.707Z,73.71
2022-12-01T00:44:59.986Z,73.81
2022-12-01T00:47:31.671Z,73.69
2022-12-01T00:50:04.979Z,73.58
2022-12-01T00:52:38.021Z,73.85
2022-12-01T00:55:13.707Z,73.80
2022-12-01T00:57:43.887Z,73.76
2022-12-01T01:00:19.673Z,73.79
2022-12-01T01:02:52.875Z,73.51
2022-12-01T01:05:23.515Z,73.76
2022-12-01T01:07:53.759Z,73.71
2022-12-01T01:10:36.631Z,74.05
2022-12-01T01:13:06.708Z,74.01
2022-12-01T01:15:37.073Z,74.18
2022-12-01T01:18:12.384Z,73.93
2022-12-01T01:20:42.781Z,74.51
2022-12-01T01:23:12.911Z,74.31
2022-12-01T01:25:48.015Z,74.11
2022-12-01T01:28:18.657Z,73.77
2022-12-01T01:30:51.691Z,73.94
2022-12-01T01:33:22.167Z,74.22
2022-12-01T01:35:54.416Z,74.11
2022-12-01T01:38:24.675Z,73.93
2022-12-01T01:41:03.489Z,73.75
2022-12-01T01:43:48.474Z,73.71
2022-12-01T01:46:23.530Z,73.94
2022-12-01T01:48:57.627Z,73.80
2022-12-01T01:51:31.222Z,73.74
2022-12-01T01:54:05.547Z,73.78
2022-12-01T01:56:39.410Z,73.99
2022-12-01T01:59:10.466Z,74.02
2022-12-01T02:01:40.669Z,73.79
2022-12-01T02:04:11.236Z,73.87
2022-12-01T02:06:41.377Z,74.05
2022-12-01T02:09:13.454Z,74.08
2022-12-01T02:12:11.560Z,73.87
2022-12-01T02:15:06.577Z,74.03
2022-12-01T02:17:43.311Z,73.65
2022-12-01T02:20:35.346Z,73.53
2022-12-01T02:23:27.889Z,73.75
2022-12-01T02:26:19.160Z,73.95
2022-12-01T02:29:09.479Z,73.70
2022-12-01T02:31:49.499Z,73.56
2022-12-01T02:34:28.048Z,73.45
2022-12-01T02:37:03.365Z,73.54
2022-12-01T02:39:38.281Z,73.87
2022-12-01T02:42:35.629Z,73.67
2022-12-01T02:45:09.828Z,73.70
2022-12-01T02:47:45.287Z,73.95
2022-12-01T02:50:16.448Z,74.04
2022-12-01T02:52:49.709Z,73.97
2022-12-01T02:55:19.804Z,73.91
2022-12-01T02:57:50.224Z,74.06
2022-12-01T03:00:21.497Z,74.14
2022-12-01T03:03:24.600Z,74.65
2022-12-01T03:06:02.200Z,74.64
2022-12-01T03:08:46.205Z,74.59
2022-12-01T03:11:29.800Z,74.99
2022-12-01T03:14:11.944Z,74.98
2022-12-01T03:16:52.630Z,74.73
2022-12-01T03:19:35.998Z,74.43
2022-12-01T03:22:16.035Z,74.57
2022-12-01T03:24:50.996Z,74.39
2022-12-01T03:27:28.208Z,74.66
2022-12-01T03:30:04.940Z,74.51
2022-12-01T03:32:41.574Z,74.46
2022-12-01T03:35:19.173Z,74.49
2022-12-01T03:37:54.429Z,74.01
2022-12-01T03:40:28.784Z,74.21
2022-12-01T03:43:02.675Z,73.42
2022-12-01T03:45:44.125Z,73.50
2022-12-01T03:48:23.009Z,73.74
2022-12-01T03:51:08.900Z,73.64
2022-12-01T03:53:48.952Z,73.79
2022-12-01T03:56:23.278Z,73.59
2022-12-01T03:58:59.551Z,73.62
2022-12-01T04:01:36.463Z,73.55
2022-12-01T04:04:08.683Z,73.34
2022-12-01T04:06:43.206Z,73.84
2022-12-01T04:09:13.592Z,73.80
2022-12-01T04:11:58.662Z,73.63
2022-12-01T04:14:32.195Z,73.66
2022-12-01T04:17:05.117Z,74.00
2022-12-01T04:19:37.589Z,74.13
2022-12-01T04:22:13.239Z,74.02
2022-12-01T04:24:45.644Z,73.80
2022-12-01T04:27:16.482Z,74.24
2022-12-01T04:29:47.592Z,73.86
2022-12-01T04:32:24.456Z,74.43
2022-12-01T04:34:56.879Z,73.94
2022-12-01T04:37:29.682Z,74.25
2022-12-01T04:39:59.775Z,73.84
2022-12-01T04:42:30.103Z,74.12
2022-12-01T04:45:00.306Z,73.90
2022-12-01T04:47:30.551Z,74.01
2022-12-01T04:50:00.683Z,73.78
2022-12-01T04:52:35.409Z,73.95
2022-12-01T04:55:08.999Z,74.15
2022-12-01T04:57:39.671Z,74.30
2022-12-01T05:00:13.831Z,74.06
2022-12-01T05:02:44.184Z,74.17
2022-12-01T05:05:14.931Z,74.34
2022-12-01T05:07:48.789Z,74.56
2022-12-01T05:10:21.967Z,73.93
2022-12-01T05:12:52.523Z,74.20
2022-12-01T05:15:22.540Z,74.29
2022-12-01T05:17:55.291Z,74.52
2022-12-01T05:20:40.213Z,74.36
2022-12-01T05:23:17.210Z,74.27
2022-12-01T05:25:50.416Z,74.68
2022-12-01T05:28:27.178Z,74.83
2022-12-01T05:31:01.121Z,74.60
2022-12-01T05:33:31.711Z,74.61
2022-12-01T05:36:02.101Z,74.86
2022-12-01T05:38:34.810Z,74.65
2022-12-01T05:41:05.047Z,74.63
2022-12-01T05:43:35.130Z,74.71
2022-12-01T05:46:05.799Z,74.98
2022-12-01T05:48:35.849Z,75.05
2022-12-01T05:51:14.075Z,74.93
2022-12-01T05:53:49.767Z,75.09
2022-12-01T05:56:21.989Z,74.79
2022-12-01T05:58:55.088Z,74.94
2022-12-01T06:01:25.231Z,75.20
2022-12-01T06:03:56.488Z,74.70
2022-12-01T06:06:26.630Z,75.05
2022-12-01T06:08:59.248Z,75.16
2022-12-01T06:11:31.577Z,75.18
2022-12-01T06:14:09.019Z,75.01
2022-12-01T06:16:41.492Z,74.90
2022-12-01T06:19:14.172Z,75.04
2022-12-01T06:21:46.347Z,75.26
2022-12-01T06:24:19.247Z,75.05
2022-12-01T06:26:51.980Z,75.05
2022-12-01T06:29:22.145Z,75.23
2022-12-01T06:31:55.177Z,74.70
2022-12-01T06:34:25.413Z,74.19
2022-12-01T06:36:57.474Z,73.88
2022-12-01T06:39:30.775Z,73.22
2022-12-01T06:42:00.894Z,73.27
2022-12-01T06:44:31.760Z,72.94
2022-12-01T06:47:01.947Z,71.99
2022-12-01T06:49:32.255Z,71.49
2022-12-01T06:52:02.444Z,71.19
2022-12-01T06:54:39.757Z,70.22
2022-12-01T06:57:12.423Z,68.57
2022-12-01T06:59:42.798Z,65.45
2022-12-01T07:02:14.036Z,62.58
2022-12-01T07:04:44.920Z,60.21
2022-12-01T07:07:15.082Z,59.21
2022-12-01T07:09:51.377Z,58.36
2022-12-01T07:12:26.931Z,56.57
2022-12-01T07:14:58.185Z,54.31
2022-12-01T07:17:28.227Z,53.11
2022-12-01T07:19:58.407Z,52.27
2022-12-01T07:22:32.654Z,52.07
2022-12-01T07:25:09.987Z,51.80
2022-12-01T07:27:40.596Z,51.25
2022-12-01T07:30:12.051Z,50.76
2022-12-01T07:32:43.504Z,50.81
2022-12-01T07:35:13.583Z,50.58
2022-12-01T07:37:45.928Z,51.32
2022-12-01T07:40:19.043Z,52.33
2022-12-01T07:42:49.112Z,52.93
2022-12-01T07:45:19.369Z,53.03
2022-12-01T07:47:49.509Z,53.27
2022-12-01T07:50:19.748Z,53.90
2022-12-01T07:52:52.604Z,53.69
2022-12-01T07:55:25.291Z,53.84
2022-12-01T07:57:55.377Z,54.12
2022-12-01T08:00:26.268Z,54.18
2022-12-01T08:02:56.750Z,54.68
2022-12-01T08:05:27.684Z,55.54
2022-12-01T08:07:58.591Z,55.97
2022-12-01T08:10:33.622Z,55.70
2022-12-01T08:13:03.731Z,56.42
2022-12-01T08:15:33.942Z,56.34
2022-12-01T08:18:07.846Z,56.18
2022-12-01T08:20:37.738Z,56.19
2022-12-01T08:23:08.391Z,55.28
2022-12-01T08:25:41.127Z,55.37
2022-12-01T08:28:11.221Z,54.27
2022-12-01T08:30:44.774Z,53.57
2022-12-01T08:33:14.941Z,53.52
2022-12-01T08:35:49.568Z,52.98
2022-12-01T08:38:19.895Z,52.84
2022-12-01T08:40:52.669Z,52.52
2022-12-01T08:43:49.435Z,52.30
2022-12-01T08:46:21.640Z,51.95
2022-12-01T08:48:51.891Z,52.09
2022-12-01T08:51:25.216Z,51.86
2022-12-01T08:53:58.275Z,51.89
2022-12-01T08:56:34.781Z,51.76
2022-12-01T08:59:05.906Z,52.03
2022-12-01T09:01:52.151Z,52.22
2022-12-01T09:04:23.525Z,51.91
2022-12-01T09:06:57.635Z,51.61
2022-12-01T09:09:30.094Z,51.32
2022-12-01T09:12:03.424Z,51.16
2022-12-01T09:14:33.474Z,51.09
2022-12-01T09:17:03.637Z,50.98
2022-12-01T09:19:34.015Z,52.60
2022-12-01T09:22:04.676Z,51.46
2022-12-01T09:24:37.482Z,51.11
2022-12-01T09:27:22.757Z,51.22
2022-12-01T09:29:55.808Z,49.94
2022-12-01T09:32:26.201Z,49.93
2022-12-01T09:34:56.293Z,50.35
2022-12-01T09:37:29.140Z,49.28
2022-12-01T09:39:59.258Z,48.95
2022-12-01T09:42:35.791Z,48.99
2022-12-01T09:45:10.099Z,49.68
2022-12-01T09:47:42.755Z,49.17
2022-12-01T09:50:18.882Z,48.18
2022-12-01T09:52:53.337Z,47.94
2022-12-01T09:55:26.112Z,47.69
2022-12-01T09:58:01.288Z,47.23
2022-12-01T10:00:36.950Z,47.79
2022-12-01T10:03:24.927Z,47.61
2022-12-01T10:09:01.456Z,47.89
2022-12-01T10:11:38.785Z,47.65
2022-12-01T10:14:20.858Z,47.80
2022-12-01T10:17:03.679Z,47.86
2022-12-01T10:19:42.118Z,48.53
2022-12-01T10:22:27.005Z,48.29
2022-12-01T10:25:09.911Z,48.47
2022-12-01T10:27:51.410Z,47.28
2022-12-01T10:30:26.752Z,46.89
2022-12-01T10:33:01.437Z,47.18
2022-12-01T10:35:37.259Z,47.47
2022-12-01T10:38:18.209Z,46.26
2022-12-01T10:40:50.864Z,46.66
2022-12-01T10:43:20.911Z,46.68
2022-12-01T10:45:57.001Z,44.84
2022-12-01T10:48:32.320Z,44.58
2022-12-01T10:51:20.269Z,44.18
2022-12-01T10:53:50.333Z,43.32
2022-12-01T10:56:23.305Z,43.39
2022-12-01T10:58:55.413Z,42.97
2022-12-01T11:01:35.796Z,42.58
2022-12-01T11:04:11.333Z,44.25
2022-12-01T11:06:41.416Z,43.87
2022-12-01T11:09:26.900Z,42.71
2022-12-01T11:11:59.833Z,42.35
2022-12-01T11:14:40.147Z,43.01
2022-12-01T11:17:29.911Z,42.91
2022-12-01T11:20:00.308Z,42.72
2022-12-01T11:22:40.121Z,43.46
2022-12-01T11:25:23.122Z,43.79
2022-12-01T11:28:01.924Z,43.33
2022-12-01T11:30:37.666Z,44.02
2022-12-01T11:33:18.540Z,44.13
2022-12-01T11:35:51.903Z,43.89
2022-12-01T11:38:32.958Z,43.81
2022-12-01T11:41:06.568Z,43.83
2022-12-01T11:43:47.663Z,43.41
2022-12-01T11:46:33.183Z,44.49
2022-12-01T11:49:06.718Z,44.49
2022-12-01T11:51:40.010Z,44.41
2022-12-01T11:54:20.452Z,44.57
2022-12-01T11:57:17.486Z,44.62
2022-12-01T11:59:42.308Z,44.54
2022-12-01T12:02:26.932Z,44.86
2022-12-01T12:05:37.193Z,45.11
2022-12-01T12:08:18.280Z,44.51
2022-12-01T12:11:02.778Z,45.19
2022-12-01T12:13:55.057Z,44.38
2022-12-01T12:16:35.926Z,44.48
2022-12-01T12:19:33.692Z,44.83
2022-12-01T12:22:24.754Z,45.72
2022-12-01T12:25:05.541Z,45.16
2022-12-01T12:27:49.877Z,45.05
2022-12-01T12:30:26.381Z,46.05
2022-12-01T12:33:23.145Z,46.68
2022-12-01T12:36:03.290Z,46.80
2022-12-01T12:38:49.033Z,46.61
2022-12-01T12:41:31.505Z,46.92
2022-12-01T12:44:36.641Z,46.94
2022-12-01T12:47:22.311Z,46.13
2022-12-01T12:50:01.828Z,46.37
2022-12-01T12:52:40.822Z,46.75
2022-12-01T12:55:22.930Z,46.47
2022-12-01T12:57:57.010Z,46.73
2022-12-01T13:00:29.326Z,46.59
2022-12-01T13:03:06.363Z,47.29
2022-12-01T13:05:44.335Z,47.27
2022-12-01T13:08:19.054Z,47.75
2022-12-01T13:11:00.840Z,47.43
2022-12-01T13:13:37.702Z,48.44
2022-12-01T13:16:16.267Z,48.81
2022-12-01T13:18:50.552Z,48.58
2022-12-01T13:21:24.056Z,49.14
2022-12-01T13:23:55.471Z,49.66
2022-12-01T13:26:28.634Z,50.11
2022-12-01T13:29:00.807Z,50.28
2022-12-01T13:31:34.086Z,50.39
2022-12-01T13:34:08.873Z,50.78
2022-12-01T13:36:46.733Z,50.96
2022-12-01T13:39:22.743Z,51.19
2022-12-01T13:42:10.537Z,51.99
2022-12-01T13:44:45.834Z,52.08
2022-12-01T13:47:35.754Z,52.09
2022-12-01T13:50:35.573Z,52.79
2022-12-01T13:53:38.634Z,53.12
2022-12-01T13:56:28.143Z,53.84
2022-12-01T13:59:01.239Z,54.27
2022-12-01T14:01:52.182Z,54.68
2022-12-01T14:04:37.327Z,55.37
2022-12-01T14:07:29.601Z,55.99
2022-12-01T14:10:32.026Z,55.77
2022-12-01T14:13:12.611Z,56.06
2022-12-01T14:15:46.167Z,56.65
2022-12-01T14:18:35.998Z,57.38
2022-12-01T14:21:11.411Z,57.28
2022-12-01T14:24:01.156Z,58.08
2022-12-01T14:26:34.830Z,58.19
2022-12-01T14:29:26.899Z,58.66
2022-12-01T14:32:26.809Z,58.37
2022-12-01T14:35:15.716Z,58.58
2022-12-01T14:37:53.437Z,58.95
2022-12-01T14:40:31.058Z,59.90
2022-12-01T14:43:17.377Z,59.80
2022-12-01T14:46:04.364Z,59.93
2022-12-01T14:48:40.514Z,60.10
2022-12-01T14:51:30.085Z,60.72
2022-12-01T14:54:02.564Z,61.01
2022-12-01T14:56:39.392Z,61.51
2022-12-01T14:59:18.622Z,62.02
2022-12-01T15:01:51.554Z,61.81
2022-12-01T15:04:22.243Z,62.05
2022-12-01T15:06:59.551Z,62.55
2022-12-01T15:09:34.616Z,62.50
2022-12-01T15:12:07.981Z,63.04
2022-12-01T15:14:40.355Z,63.87
2022-12-01T15:17:10.479Z,63.53
2022-12-01T15:19:44.166Z,63.83
2022-12-01T15:22:23.289Z,63.54
2022-12-01T15:24:53.412Z,64.28
2022-12-01T15:27:29.687Z,64.38
2022-12-01T15:30:04.938Z,64.57
2022-12-01T15:32:42.745Z,64.75
2022-12-01T15:35:21.480Z,64.86
2022-12-01T15:37:55.360Z,65.25
2022-12-01T15:41:13.280Z,65.38
2022-12-01T15:43:21.798Z,65.78
2022-12-01T15:45:59.453Z,65.72
2022-12-01T15:48:34.384Z,66.19
2022-12-01T15:51:11.421Z,66.11
2022-12-01T15:53:50.811Z,66.48
2022-12-01T15:56:27.996Z,66.62
2022-12-01T15:59:03.588Z,67.41
2022-12-01T16:01:39.977Z,66.96
2022-12-01T16:04:20.547Z,67.49
2022-12-01T16:07:01.184Z,67.61
2022-12-01T16:09:38.605Z,67.76
2022-12-01T16:12:22.864Z,68.06
2022-12-01T16:14:57.054Z,68.07
2022-12-01T16:17:28.229Z,67.84
2022-12-01T16:20:26.871Z,68.26
2022-12-01T16:23:00.020Z,68.23
2022-12-01T16:25:43.579Z,68.29
2022-12-01T16:28:25.273Z,68.88
2022-12-01T16:30:58.445Z,68.85
2022-12-01T16:33:30.565Z,68.82
2022-12-01T16:36:07.079Z,69.26
2022-12-01T16:38:42.752Z,69.16
2022-12-01T16:41:38.299Z,69.45
2022-12-01T16:44:28.132Z,69.40
2022-12-01T16:46:59.261Z,69.81
2022-12-01T16:49:35.054Z,69.65
2022-12-01T16:52:42.502Z,69.57
2022-12-01T16:54:58.598Z,69.57
2022-12-01T16:57:38.262Z,70.02
2022-12-01T17:00:11.260Z,69.71
2022-12-01T17:02:43.653Z,69.77
2022-12-01T17:05:16.747Z,69.89
2022-12-01T17:07:54.603Z,70.46
2022-12-01T17:10:27.404Z,70.10
2022-12-01T17:13:02.931Z,70.27
2022-12-01T17:15:36.472Z,70.39
2022-12-01T17:18:12.022Z,70.59
2022-12-01T17:20:44.738Z,70.93
2022-12-01T17:23:15.106Z,71.16
2022-12-01T17:25:45.479Z,71.07
2022-12-01T17:28:18.156Z,71.14
2022-12-01T17:30:48.354Z,71.04
2022-12-01T17:33:19.675Z,71.48
2022-12-01T17:35:52.832Z,71.40
2022-12-01T17:38:24.175Z,71.66
2022-12-01T17:41:03.366Z,72.03
2022-12-01T17:43:39.528Z,71.76
2022-12-01T17:46:13.852Z,71.88
2022-12-01T17:48:47.307Z,71.69
2022-12-01T17:51:18.212Z,72.04
2022-12-01T17:53:48.309Z,71.74
2022-12-01T17:56:20.735Z,72.17
2022-12-01T17:58:55.038Z,72.21
2022-12-01T18:01:30.006Z,71.68
2022-12-01T18:04:01.339Z,71.62
2022-12-01T18:06:31.555Z,71.56
2022-12-01T18:09:02.949Z,72.29
2022-12-01T18:11:34.246Z,71.95
2022-12-01T18:14:07.060Z,71.92
2022-12-01T18:16:38.604Z,72.21
2022-12-01T18:19:12.828Z,72.09
2022-12-01T18:21:45.763Z,72.36
2022-12-01T18:24:18.700Z,72.44
2022-12-01T18:26:48.904Z,72.34
2022-12-01T18:29:28.819Z,72.29
2022-12-01T18:31:59.764Z,72.37
2022-12-01T18:34:31.250Z,72.73
2022-12-01T18:37:01.374Z,72.65
2022-12-01T18:39:31.876Z,72.81
2022-12-01T18:42:02.150Z,72.64
2022-12-01T18:44:43.285Z,72.79
2022-12-01T18:47:16.464Z,72.93
2022-12-01T18:49:47.111Z,72.76
2022-12-01T18:52:20.144Z,72.85
2022-12-01T18:54:53.240Z,73.17
2022-12-01T18:57:23.453Z,73.37
2022-12-01T18:59:59.038Z,73.22
2022-12-01T19:02:32.228Z,73.59
2022-12-01T19:05:02.643Z,73.58
2022-12-01T19:07:33.840Z,73.93
2022-12-01T19:10:06.540Z,74.02
2022-12-01T19:12:41.019Z,74.40
2022-12-01T19:15:22.849Z,74.19
2022-12-01T19:17:54.650Z,74.24
2022-12-01T19:20:24.737Z,74.30
2022-12-01T19:22:55.213Z,73.62
2022-12-01T19:25:25.431Z,73.93
2022-12-01T19:27:55.637Z,73.65
2022-12-01T19:30:28.479Z,73.66
2022-12-01T19:32:59.012Z,74.13
2022-12-01T19:35:30.293Z,73.85
2022-12-01T19:38:03.683Z,73.51
2022-12-01T19:40:33.981Z,73.88
2022-12-01T19:43:09.546Z,73.55
2022-12-01T19:45:43.835Z,74.02
2022-12-01T19:48:17.828Z,74.19
2022-12-01T19:50:47.733Z,74.31
2022-12-01T19:53:20.893Z,74.05
2022-12-01T19:55:53.876Z,74.03
2022-12-01T19:58:25.645Z,74.02
2022-12-01T20:00:58.437Z,74.07
2022-12-01T20:03:28.677Z,74.13
2022-12-01T20:06:06.163Z,74.46
2022-12-01T20:08:36.728Z,74.53
2022-12-01T20:11:10.275Z,74.49
2022-12-01T20:13:42.149Z,74.43
2022-12-01T20:16:17.512Z,74.42
2022-12-01T20:18:48.006Z,74.76
2022-12-01T20:21:20.748Z,74.55
2022-12-01T20:23:53.166Z,74.74
2022-12-01T20:26:28.959Z,74.84
2022-12-01T20:29:03.362Z,74.89
2022-12-01T20:31:40.822Z,74.45
2022-12-01T20:34:13.091Z,74.88
2022-12-01T20:36:44.864Z,75.00
2022-12-01T20:39:15.845Z,75.39
2022-12-01T20:41:48.371Z,75.31
2022-12-01T20:44:20.354Z,75.29
2022-12-01T20:46:53.032Z,74.48
2022-12-01T20:49:30.773Z,74.95
2022-12-01T20:52:01.936Z,74.79
2022-12-01T20:54:31.982Z,74.68
2022-12-01T20:57:02.238Z,74.56
2022-12-01T20:59:32.469Z,74.94
2022-12-01T21:02:05.256Z,74.63
2022-12-01T21:04:35.296Z,74.71
2022-12-01T21:07:12.592Z,74.35
2022-12-01T21:09:42.908Z,74.38
2022-12-01T21:12:29.475Z,74.34
2022-12-01T21:15:09.098Z,74.38
2022-12-01T21:17:46.795Z,74.94
2022-12-01T21:20:25.271Z,74.84
2022-12-01T21:22:56.530Z,74.75
2022-12-01T21:25:27.205Z,75.27
2022-12-01T21:28:02.771Z,75.34
2022-12-01T21:30:33.973Z,75.52
2022-12-01T21:33:19.868Z,75.31
2022-12-01T21:35:53.207Z,75.53
2022-12-01T21:38:23.597Z,75.30
2022-12-01T21:40:56.162Z,75.15
2022-12-01T21:43:33.882Z,75.15
2022-12-01T21:46:18.035Z,75.02
2022-12-01T21:48:52.959Z,75.29
2022-12-01T21:51:30.651Z,75.44
2022-12-01T21:54:01.233Z,75.32
2022-12-01T21:56:37.294Z,74.89
2022-12-01T21:59:18.306Z,75.08
2022-12-01T22:01:49.884Z,75.11
2022-12-01T22:04:24.037Z,75.21
2022-12-01T22:06:56.151Z,74.78
2022-12-01T22:09:30.186Z,75.17
2022-12-01T22:12:02.857Z,74.76
2022-12-01T22:14:45.047Z,74.69
2022-12-01T22:17:21.469Z,74.31
2022-12-01T22:19:59.025Z,74.47
2022-12-01T22:22:30.565Z,74.13
2022-12-01T22:25:11.830Z,73.95
2022-12-01T22:27:44.075Z,74.34
2022-12-01T22:30:20.451Z,73.99
2022-12-01T22:33:01.534Z,73.54
2022-12-01T22:35:48.633Z,73.54
2022-12-01T22:38:24.720Z,73.87
2022-12-01T22:40:59.967Z,73.57
2022-12-01T22:43:43.158Z,73.82
2022-12-01T22:46:39.843Z,73.33
2022-12-01T22:49:20.365Z,73.51
2022-12-01T22:51:53.712Z,73.77
2022-12-01T22:54:40.483Z,73.19
2022-12-01T22:57:31.234Z,73.47
2022-12-01T23:00:04.490Z,73.19
2022-12-01T23:02:37.322Z,72.98
2022-12-01T23:05:21.978Z,73.38
2022-12-01T23:07:56.290Z,73.24
2022-12-01T23:10:28.252Z,73.11
2022-12-01T23:13:02.418Z,73.49
2022-12-01T23:15:36.436Z,73.20
2022-12-01T23:18:14.672Z,73.59
2022-12-01T23:20:46.471Z,73.50
2022-12-01T23:23:21.458Z,73.63
2022-12-01T23:25:54.207Z,73.72
2022-12-01T23:28:30.127Z,73.47
2022-12-01T23:31:03.694Z,73.64
2022-12-01T23:33:37.632Z,73.81
2022-12-01T23:36:19.333Z,74.01
2022-12-01T23:38:54.680Z,73.68
2022-12-01T23:41:36.136Z,73.46
2022-12-01T23:44:14.820Z,73.63
2022-12-01T23:46:45.095Z,73.90
2022-12-01T23:49:18.951Z,73.51
2022-12-01T23:51:52.156Z,73.89
2022-12-01T23:54:29.963Z,73.98
2022-12-01T23:57:05.335Z,73.98
2022-12-01T23:59:35.497Z,73.99
